Time,TemperatureF,DewpointF,PressureIn,WindDirection,WindDirectionDegrees,WindSpeedMPH,WindSpeedGustMPH,Humidity,HourlyPrecipIn,Conditions,Clouds,dailyrainin,SoftwareType,DateUTC
2013-01-01 00:00:00,11.7,8.8,30.22,SE,125,0.0,0.0,88,0.00,,,0.00,Wunderground v.1.15,2013-01-01 07:00:00,
2013-01-01 00:05:00,12.2,9.6,30.22,SE,126,0.0,0.0,89,0.00,,,0.00,Wunderground v.1.15,2013-01-01 07:05:00,
2013-01-01 00:15:00,11.8,8.7,30.22,SE,125,0.0,0.0,87,0.00,,,0.00,Wunderground v.1.15,2013-01-01 07:15:00,
2013-01-01 00:20:00,11.5,8.1,30.22,SE,127,0.0,0.0,86,0.00,,,0.00,Wunderground v.1.15,2013-01-01 07:20:00,
2013-01-01 00:25:00,11.1,7.7,30.22,SE,126,0.0,0.0,86,0.00,,,0.00,Wunderground v.1.15,2013-01-01 07:25:00,
2013-01-01 00:30:00,10.9,7.5,30.22,SE,125,0.0,0.0,86,0.00,,,0.00,Wunderground v.1.15,2013-01-01 07:30:00,
2013-01-01 00:35:00,10.9,7.8,30.22,ESE,120,0.0,1.0,87,0.00,,,0.00,Wunderground v.1.15,2013-01-01 07:35:00,
2013-01-01 00:40:00,10.9,7.8,30.22,ESE,120,0.0,0.0,87,0.00,,,0.00,Wunderground v.1.15,2013-01-01 07:40:00,
2013-01-01 00:45:00,10.7,7.6,30.22,ESE,120,0.0,0.0,87,0.00,,,0.00,Wunderground v.1.15,2013-01-01 07:45:00,
2013-01-01 00:50:00,10.3,6.9,30.23,ESE,120,0.0,0.0,86,0.00,,,0.00,Wunderground v.1.15,2013-01-01 07:50:00,
2013-01-01 01:00:00,10.4,7.3,30.23,SW,232,0.0,0.0,87,0.00,,,0.00,Wunderground v.1.15,2013-01-01 08:00:00,
2013-01-01 01:05:00,10.7,7.8,30.24,WSW,241,0.0,0.0,88,0.00,,,0.00,Wunderground v.1.15,2013-01-01 08:05:00,
2013-01-01 01:15:00,11.4,8.3,30.24,East,90,0.0,1.0,87,0.00,,,0.00,Wunderground v.1.15,2013-01-01 08:15:00,
2013-01-01 01:20:00,11.5,8.4,30.24,East,90,0.0,0.0,87,0.00,,,0.00,Wunderground v.1.15,2013-01-01 08:20:00,
2013-01-01 01:25:00,11.7,8.6,30.24,East,91,0.0,0.0,87,0.00,,,0.00,Wunderground v.1.15,2013-01-01 08:25:00,
2013-01-01 01:35:00,11.3,7.7,30.25,East,93,0.0,0.0,85,0.00,,,0.00,Wunderground v.1.15,2013-01-01 08:35:00,
2013-01-01 01:40:00,11.3,7.9,30.25,East,82,0.0,0.0,86,0.00,,,0.00,Wunderground v.1.15,2013-01-01 08:40:00,
2013-01-01 01:45:00,11.4,8.0,30.25,East,82,0.0,0.0,86,0.00,,,0.00,Wunderground v.1.15,2013-01-01 08:45:00,
2013-01-01 01:50:00,11.4,8.0,30.26,East,82,0.0,0.0,86,0.00,,,0.00,Wunderground v.1.15,2013-01-01 08:50:00,
2013-01-01 01:55:00,11.8,8.9,30.26,East,82,0.0,0.0,88,0.00,,,0.00,Wunderground v.1.15,2013-01-01 08:55:00,
2013-01-01 02:00:00,11.9,8.8,30.26,East,82,0.0,0.0,87,0.00,,,0.00,Wunderground v.1.15,2013-01-01 09:00:00,
2013-01-01 02:10:00,11.4,7.8,30.27,East,83,0.0,0.0,85,0.00,,,0.00,Wunderground v.1.15,2013-01-01 09:10:00,
2013-01-01 02:15:00,11.3,7.7,30.28,East,84,0.0,0.0,85,0.00,,,0.00,Wunderground v.1.15,2013-01-01 09:15:00,
2013-01-01 02:20:00,11.3,7.9,30.28,East,82,0.0,0.0,86,0.00,,,0.00,Wunderground v.1.15,2013-01-01 09:20:00,
2013-01-01 02:25:00,11.6,8.5,30.28,East,82,0.0,0.0,87,0.00,,,0.00,Wunderground v.1.15,2013-01-01 09:25:00,
2013-01-01 02:30:00,11.8,8.7,30.28,East,82,0.0,0.0,87,0.00,,,0.00,Wunderground v.1.15,2013-01-01 09:30:00,
2013-01-01 02:35:00,11.5,8.1,30.29,East,82,0.0,0.0,86,0.00,,,0.00,Wunderground v.1.15,2013-01-01 09:35:00,
2013-01-01 02:40:00,11.6,8.5,30.29,East,82,0.0,0.0,87,0.00,,,0.00,Wunderground v.1.15,2013-01-01 09:40:00,
2013-01-01 02:45:00,11.8,8.7,30.29,ESE,107,0.0,0.0,87,0.00,,,0.00,Wunderground v.1.15,2013-01-01 09:45:00,
2013-01-01 02:50:00,11.1,7.5,30.29,ESE,107,0.0,0.0,85,0.00,,,0.00,Wunderground v.1.15,2013-01-01 09:50:00,
2013-01-01 03:00:00,10.2,6.6,30.29,ESE,106,0.0,0.0,85,0.00,,,0.00,Wunderground v.1.15,2013-01-01 10:00:00,
2013-01-01 03:05:00,10.0,6.6,30.29,ESE,106,0.0,0.0,86,0.00,,,0.00,Wunderground v.1.15,2013-01-01 10:05:00,
2013-01-01 03:15:00,9.8,6.2,30.30,East,84,0.0,0.0,85,0.00,,,0.00,Wunderground v.1.15,2013-01-01 10:15:00,
2013-01-01 03:20:00,9.6,6.3,30.30,East,84,0.0,0.0,86,0.00,,,0.00,Wunderground v.1.15,2013-01-01 10:20:00,
2013-01-01 03:25:00,10.1,7.3,30.30,East,82,0.0,0.0,88,0.00,,,0.00,Wunderground v.1.15,2013-01-01 10:25:00,
2013-01-01 03:35:00,10.3,6.9,30.30,ENE,70,0.0,1.0,86,0.00,,,0.00,Wunderground v.1.15,2013-01-01 10:35:00,
2013-01-01 03:40:00,10.4,7.0,30.31,WSW,252,0.0,1.0,86,0.00,,,0.00,Wunderground v.1.15,2013-01-01 10:40:00,
2013-01-01 03:45:00,10.6,7.5,30.30,WSW,240,0.0,1.0,87,0.00,,,0.00,Wunderground v.1.15,2013-01-01 10:45:00,
2013-01-01 03:50:00,10.9,7.8,30.30,WSW,241,0.0,0.0,87,0.00,,,0.00,Wunderground v.1.15,2013-01-01 10:50:00,
2013-01-01 03:55:00,11.1,8.0,30.30,WSW,240,0.0,0.0,87,0.00,,,0.00,Wunderground v.1.15,2013-01-01 10:55:00,
2013-01-01 04:00:00,11.4,8.3,30.30,SW,235,0.0,1.0,87,0.00,,,0.00,Wunderground v.1.15,2013-01-01 11:00:00,
2013-01-01 04:05:00,11.3,7.9,30.30,East,96,1.0,1.0,86,0.00,,,0.00,Wunderground v.1.15,2013-01-01 11:05:00,
2013-01-01 04:15:00,11.7,8.3,30.30,NE,36,1.0,1.0,86,0.00,,,0.00,Wunderground v.1.15,2013-01-01 11:15:00,
2013-01-01 04:20:00,11.9,8.5,30.30,NE,36,0.0,0.0,86,0.00,,,0.00,Wunderground v.1.15,2013-01-01 11:20:00,
2013-01-01 04:25:00,12.2,9.1,30.30,NE,35,0.0,0.0,87,0.00,,,0.00,Wunderground v.1.15,2013-01-01 11:25:00,
2013-01-01 04:30:00,12.0,8.4,30.30,NE,35,0.0,0.0,85,0.00,,,0.00,Wunderground v.1.15,2013-01-01 11:30:00,
2013-01-01 04:40:00,12.1,8.7,30.30,NE,34,0.0,0.0,86,0.00,,,0.00,Wunderground v.1.15,2013-01-01 11:40:00,
2013-01-01 04:45:00,12.2,8.8,30.30,NE,34,0.0,0.0,86,0.00,,,0.00,Wunderground v.1.15,2013-01-01 11:45:00,
2013-01-01 04:50:00,12.2,8.8,30.30,NE,36,0.0,0.0,86,0.00,,,0.00,Wunderground v.1.15,2013-01-01 11:50:00,
2013-01-01 04:55:00,12.2,8.8,30.30,East,95,0.0,1.0,86,0.00,,,0.00,Wunderground v.1.15,2013-01-01 11:55:00,
2013-01-01 05:00:00,12.1,8.5,30.30,WNW,302,0.0,0.0,85,0.00,,,0.00,Wunderground v.1.15,2013-01-01 12:00:00,
2013-01-01 05:05:00,11.9,8.3,30.30,WNW,297,0.0,0.0,85,0.00,,,0.00,Wunderground v.1.15,2013-01-01 12:05:00,
2013-01-01 05:15:00,12.0,8.4,30.30,NNE,18,0.0,0.0,85,0.00,,,0.00,Wunderground v.1.15,2013-01-01 12:15:00,
2013-01-01 05:20:00,12.0,8.4,30.30,NNE,18,0.0,0.0,85,0.00,,,0.00,Wunderground v.1.15,2013-01-01 12:20:00,
2013-01-01 05:25:00,12.1,8.5,30.30,NNE,18,0.0,0.0,85,0.00,,,0.00,Wunderground v.1.15,2013-01-01 12:25:00,
2013-01-01 05:30:00,12.3,8.7,30.30,NNE,17,0.0,0.0,85,0.00,,,0.00,Wunderground v.1.15,2013-01-01 12:30:00,
2013-01-01 05:35:00,12.3,8.4,30.30,NNE,16,0.0,0.0,84,0.00,,,0.00,Wunderground v.1.15,2013-01-01 12:35:00,
2013-01-01 05:45:00,12.4,8.7,30.30,NNE,16,0.0,0.0,85,0.00,,,0.00,Wunderground v.1.15,2013-01-01 12:45:00,
2013-01-01 05:50:00,12.4,8.7,30.30,NNE,16,0.0,0.0,85,0.00,,,0.00,Wunderground v.1.15,2013-01-01 12:50:00,
2013-01-01 05:55:00,12.4,8.7,30.30,NNE,16,0.0,0.0,85,0.00,,,0.00,Wunderground v.1.15,2013-01-01 12:55:00,
2013-01-01 06:00:00,12.5,8.8,30.30,NNE,18,0.0,0.0,85,0.00,,,0.00,Wunderground v.1.15,2013-01-01 13:00:00,
2013-01-01 06:05:00,12.5,8.6,30.31,NNE,16,0.0,0.0,84,0.00,,,0.00,Wunderground v.1.15,2013-01-01 13:05:00,
2013-01-01 06:15:00,14.3,10.9,30.31,North,6,1.0,1.0,86,0.00,,,0.00,Wunderground v.1.15,2013-01-01 13:15:00,
2013-01-01 06:20:00,15.5,11.3,30.31,West,271,1.0,3.0,83,0.00,,,0.00,Wunderground v.1.15,2013-01-01 13:20:00,
2013-01-01 06:25:00,16.1,10.4,30.32,ESE,112,1.0,3.0,78,0.00,,,0.00,Wunderground v.1.15,2013-01-01 13:25:00,
2013-01-01 06:30:00,15.4,10.1,30.31,ESE,118,1.0,1.0,79,0.00,,,0.00,Wunderground v.1.15,2013-01-01 13:30:00,
2013-01-01 06:35:00,15.6,10.5,30.32,ESE,110,0.0,1.0,80,0.00,,,0.00,Wunderground v.1.15,2013-01-01 13:35:00,
2013-01-01 06:40:00,15.3,10.2,30.32,East,101,0.0,0.0,80,0.00,,,0.00,Wunderground v.1.15,2013-01-01 13:40:00,
2013-01-01 06:50:00,14.8,10.0,30.33,East,89,0.0,1.0,81,0.00,,,0.00,Wunderground v.1.15,2013-01-01 13:50:00,
2013-01-01 06:55:00,14.8,10.3,30.32,East,89,0.0,1.0,82,0.00,,,0.00,Wunderground v.1.15,2013-01-01 13:55:00,
2013-01-01 07:00:00,14.7,10.2,30.33,East,89,0.0,0.0,82,0.00,,,0.00,Wunderground v.1.15,2013-01-01 14:00:00,
2013-01-01 07:05:00,14.5,10.0,30.33,East,89,0.0,1.0,82,0.00,,,0.00,Wunderground v.1.15,2013-01-01 14:05:00,
2013-01-01 07:15:00,14.4,10.2,30.33,East,89,0.0,0.0,83,0.00,,,0.00,Wunderground v.1.15,2013-01-01 14:15:00,
2013-01-01 07:25:00,14.9,10.4,30.33,NNW,343,0.0,0.0,82,0.00,,,0.00,Wunderground v.1.15,2013-01-01 14:25:00,
2013-01-01 07:30:00,14.9,10.4,30.34,NNW,343,0.0,0.0,82,0.00,,,0.00,Wunderground v.1.15,2013-01-01 14:30:00,
2013-01-01 07:35:00,15.2,11.0,30.34,NE,47,0.0,0.0,83,0.00,,,0.00,Wunderground v.1.15,2013-01-01 14:35:00,
2013-01-01 07:40:00,15.6,11.1,30.34,NE,46,0.0,0.0,82,0.00,,,0.00,Wunderground v.1.15,2013-01-01 14:40:00,
2013-01-01 07:45:00,15.6,10.8,30.34,NE,47,0.0,0.0,81,0.00,,,0.00,Wunderground v.1.15,2013-01-01 14:45:00,
2013-01-01 07:50:00,15.5,10.7,30.35,NE,47,0.0,0.0,81,0.00,,,0.00,Wunderground v.1.15,2013-01-01 14:50:00,
2013-01-01 08:00:00,15.6,11.1,30.35,NE,46,0.0,0.0,82,0.00,,,0.00,Wunderground v.1.15,2013-01-01 15:00:00,
2013-01-01 08:05:00,15.7,10.9,30.36,NE,47,0.0,0.0,81,0.00,,,0.00,Wunderground v.1.15,2013-01-01 15:05:00,
2013-01-01 08:15:00,15.6,10.8,30.36,NE,46,0.0,0.0,81,0.00,,,0.00,Wunderground v.1.15,2013-01-01 15:15:00,
2013-01-01 08:20:00,15.3,10.5,30.36,NE,46,0.0,0.0,81,0.00,,,0.00,Wunderground v.1.15,2013-01-01 15:20:00,
2013-01-01 08:25:00,15.2,10.4,30.36,NE,46,0.0,0.0,81,0.00,,,0.00,Wunderground v.1.15,2013-01-01 15:25:00,
2013-01-01 08:35:00,15.3,11.1,30.37,NE,46,0.0,0.0,83,0.00,,,0.00,Wunderground v.1.15,2013-01-01 15:35:00,
2013-01-01 08:40:00,15.5,11.3,30.37,NE,46,0.0,0.0,83,0.00,,,0.00,Wunderground v.1.15,2013-01-01 15:40:00,
2013-01-01 08:45:00,15.8,11.6,30.37,NE,46,0.0,0.0,83,0.00,,,0.00,Wunderground v.1.15,2013-01-01 15:45:00,
2013-01-01 08:50:00,16.0,11.7,30.37,NE,46,0.0,0.0,83,0.00,,,0.00,Wunderground v.1.15,2013-01-01 15:50:00,
2013-01-01 08:55:00,16.3,11.8,30.37,NE,46,0.0,0.0,82,0.00,,,0.00,Wunderground v.1.15,2013-01-01 15:55:00,
2013-01-01 09:00:00,16.6,12.1,30.37,NE,46,0.0,0.0,82,0.00,,,0.00,Wunderground v.1.15,2013-01-01 16:00:00,
2013-01-01 09:10:00,16.6,12.1,30.37,NNE,30,1.0,1.0,82,0.00,,,0.00,Wunderground v.1.15,2013-01-01 16:10:00,
2013-01-01 09:20:00,16.8,12.0,30.37,SE,139,0.0,0.0,81,0.00,,,0.00,Wunderground v.1.15,2013-01-01 16:20:00,
2013-01-01 09:25:00,17.1,12.3,30.38,SE,139,0.0,0.0,81,0.00,,,0.00,Wunderground v.1.15,2013-01-01 16:25:00,
2013-01-01 09:30:00,17.8,13.2,30.38,SE,140,0.0,0.0,82,0.00,,,0.00,Wunderground v.1.15,2013-01-01 16:30:00,
2013-01-01 09:35:00,19.0,14.4,30.38,SE,139,0.0,0.0,82,0.00,,,0.00,Wunderground v.1.15,2013-01-01 16:35:00,
2013-01-01 09:45:00,20.9,14.8,30.38,ESE,120,0.0,1.0,77,0.00,,,0.00,Wunderground v.1.15,2013-01-01 16:45:00,
2013-01-01 09:50:00,21.4,14.7,30.38,SE,132,1.0,2.0,75,0.00,,,0.00,Wunderground v.1.15,2013-01-01 16:50:00,
2013-01-01 09:55:00,21.9,14.3,30.38,ENE,70,1.0,2.0,72,0.00,,,0.00,Wunderground v.1.15,2013-01-01 16:55:00,
2013-01-01 10:00:00,22.3,15.0,30.38,NE,56,1.0,3.0,73,0.00,,,0.00,Wunderground v.1.15,2013-01-01 17:00:00,
2013-01-01 10:05:00,22.6,14.3,30.38,ENE,74,2.0,3.0,70,0.00,,,0.00,Wunderground v.1.15,2013-01-01 17:05:00,
2013-01-01 10:15:00,23.7,14.3,30.37,ESE,121,1.0,3.0,67,0.00,,,0.00,Wunderground v.1.15,2013-01-01 17:15:00,
2013-01-01 10:20:00,23.9,14.2,30.37,SSE,158,2.0,2.0,66,0.00,,,0.00,Wunderground v.1.15,2013-01-01 17:20:00,
2013-01-01 10:25:00,24.3,14.9,30.37,SE,126,2.0,2.0,67,0.00,,,0.00,Wunderground v.1.15,2013-01-01 17:25:00,
2013-01-01 10:30:00,24.6,14.1,30.37,NE,51,2.0,2.0,64,0.00,,,0.00,Wunderground v.1.15,2013-01-01 17:30:00,
2013-01-01 10:35:00,24.7,14.6,30.36,ESE,110,2.0,2.0,65,0.00,,,0.00,Wunderground v.1.15,2013-01-01 17:35:00,
2013-01-01 10:40:00,24.7,14.6,30.36,SE,129,2.0,2.0,65,0.00,,,0.00,Wunderground v.1.15,2013-01-01 17:40:00,
2013-01-01 10:45:00,25.3,14.5,30.36,ENE,57,2.0,2.0,63,0.00,,,0.00,Wunderground v.1.15,2013-01-01 17:45:00,
2013-01-01 10:50:00,25.8,14.9,30.36,ESE,106,2.0,3.0,63,0.00,,,0.00,Wunderground v.1.15,2013-01-01 17:50:00,
2013-01-01 11:00:00,26.5,14.5,30.35,ENE,67,2.0,2.0,60,0.00,,,0.00,Wunderground v.1.15,2013-01-01 18:00:00,
2013-01-01 11:05:00,26.6,14.9,30.35,East,84,2.0,3.0,61,0.00,,,0.00,Wunderground v.1.15,2013-01-01 18:05:00,
2013-01-01 11:15:00,26.0,14.4,30.35,East,82,2.0,4.0,61,0.00,,,0.00,Wunderground v.1.15,2013-01-01 18:15:00,
2013-01-01 11:20:00,25.7,14.5,30.34,ESE,117,3.0,3.0,62,0.00,,,0.00,Wunderground v.1.15,2013-01-01 18:20:00,
2013-01-01 11:25:00,26.0,14.4,30.34,SE,138,3.0,3.0,61,0.00,,,0.00,Wunderground v.1.15,2013-01-01 18:25:00,
2013-01-01 11:35:00,25.9,14.3,30.34,East,81,3.0,3.0,61,0.00,,,0.00,Wunderground v.1.15,2013-01-01 18:35:00,
2013-01-01 11:40:00,25.8,14.2,30.34,ENE,58,3.0,4.0,61,0.00,,,0.00,Wunderground v.1.15,2013-01-01 18:40:00,
2013-01-01 11:45:00,25.7,14.8,30.33,ESE,103,3.0,4.0,63,0.00,,,0.00,Wunderground v.1.15,2013-01-01 18:45:00,
2013-01-01 11:50:00,26.1,14.1,30.33,SSE,148,3.0,4.0,60,0.00,,,0.00,Wunderground v.1.15,2013-01-01 18:50:00,
2013-01-01 11:55:00,26.5,13.7,30.33,ESE,121,2.0,4.0,58,0.00,,,0.00,Wunderground v.1.15,2013-01-01 18:55:00,
2013-01-01 12:00:00,26.7,13.1,30.33,ENE,63,3.0,3.0,56,0.00,,,0.00,Wunderground v.1.15,2013-01-01 19:00:00,
2013-01-01 12:05:00,26.6,13.4,30.33,East,82,3.0,3.0,57,0.00,,,0.00,Wunderground v.1.15,2013-01-01 19:05:00,
2013-01-01 12:15:00,27.1,13.5,30.32,NE,50,3.0,4.0,56,0.00,,,0.00,Wunderground v.1.15,2013-01-01 19:15:00,
2013-01-01 12:20:00,26.9,12.5,30.32,ESE,103,3.0,3.0,54,0.00,,,0.00,Wunderground v.1.15,2013-01-01 19:20:00,
2013-01-01 12:25:00,27.3,12.8,30.31,East,89,4.0,4.0,54,0.00,,,0.00,Wunderground v.1.15,2013-01-01 19:25:00,
2013-01-01 12:30:00,27.7,12.8,30.31,SE,129,3.0,3.0,53,0.00,,,0.00,Wunderground v.1.15,2013-01-01 19:30:00,
2013-01-01 12:35:00,27.7,12.8,30.31,East,81,3.0,3.0,53,0.00,,,0.00,Wunderground v.1.15,2013-01-01 19:35:00,
2013-01-01 12:40:00,27.3,12.8,30.31,ENE,67,3.0,8.0,54,0.00,,,0.00,Wunderground v.1.15,2013-01-01 19:40:00,
2013-01-01 12:45:00,27.1,11.3,30.31,ENE,59,4.0,8.0,51,0.00,,,0.00,Wunderground v.1.15,2013-01-01 19:45:00,
2013-01-01 12:55:00,27.5,13.4,30.30,ENE,63,4.0,4.0,55,0.00,,,0.00,Wunderground v.1.15,2013-01-01 19:55:00,
2013-01-01 13:00:00,28.0,13.5,30.30,ESE,104,3.0,4.0,54,0.00,,,0.00,Wunderground v.1.15,2013-01-01 20:00:00,
2013-01-01 13:05:00,28.0,14.3,30.30,SE,143,2.0,4.0,56,0.00,,,0.00,Wunderground v.1.15,2013-01-01 20:05:00,
2013-01-01 13:15:00,27.8,14.1,30.29,East,94,2.0,4.0,56,0.00,,,0.00,Wunderground v.1.15,2013-01-01 20:15:00,
2013-01-01 13:20:00,27.7,14.4,30.29,SE,138,3.0,3.0,57,0.00,,,0.00,Wunderground v.1.15,2013-01-01 20:20:00,
2013-01-01 13:25:00,27.7,14.0,30.29,SE,143,2.0,3.0,56,0.00,,,0.00,Wunderground v.1.15,2013-01-01 20:25:00,
2013-01-01 13:30:00,27.9,14.2,30.29,South,170,3.0,3.0,56,0.00,,,0.00,Wunderground v.1.15,2013-01-01 20:30:00,
2013-01-01 13:35:00,28.1,14.4,30.28,SE,139,3.0,3.0,56,0.00,,,0.00,Wunderground v.1.15,2013-01-01 20:35:00,
2013-01-01 13:40:00,28.0,13.9,30.28,SE,136,2.0,2.0,55,0.00,,,0.00,Wunderground v.1.15,2013-01-01 20:40:00,
2013-01-01 13:45:00,27.7,14.0,30.28,ENE,60,2.0,2.0,56,0.00,,,0.00,Wunderground v.1.15,2013-01-01 20:45:00,
2013-01-01 13:55:00,27.5,14.2,30.28,ENE,75,2.0,7.0,57,0.00,,,0.00,Wunderground v.1.15,2013-01-01 20:55:00,
2013-01-01 14:00:00,27.5,14.6,30.28,East,101,2.0,2.0,58,0.00,,,0.00,Wunderground v.1.15,2013-01-01 21:00:00,
2013-01-01 14:05:00,27.8,14.9,30.28,East,83,2.0,2.0,58,0.00,,,0.00,Wunderground v.1.15,2013-01-01 21:05:00,
2013-01-01 14:15:00,28.2,15.3,30.28,ESE,106,2.0,4.0,58,0.00,,,0.00,Wunderground v.1.15,2013-01-01 21:15:00,
2013-01-01 14:25:00,28.0,14.7,30.27,ENE,60,3.0,3.0,57,0.00,,,0.00,Wunderground v.1.15,2013-01-01 21:25:00,
2013-01-01 14:30:00,27.9,15.0,30.27,East,92,2.0,2.0,58,0.00,,,0.00,Wunderground v.1.15,2013-01-01 21:30:00,
2013-01-01 14:35:00,27.7,14.4,30.27,ENE,62,2.0,2.0,57,0.00,,,0.00,Wunderground v.1.15,2013-01-01 21:35:00,
2013-01-01 14:40:00,28.0,15.1,30.27,East,94,3.0,3.0,58,0.00,,,0.00,Wunderground v.1.15,2013-01-01 21:40:00,
2013-01-01 14:45:00,28.2,14.9,30.27,South,170,2.0,3.0,57,0.00,,,0.00,Wunderground v.1.15,2013-01-01 21:45:00,
2013-01-01 14:50:00,28.3,15.0,30.27,ESE,118,2.0,2.0,57,0.00,,,0.00,Wunderground v.1.15,2013-01-01 21:50:00,
2013-01-01 15:00:00,28.3,15.0,30.27,East,94,2.0,2.0,57,0.00,,,0.00,Wunderground v.1.15,2013-01-01 22:00:00,
2013-01-01 15:05:00,28.4,14.7,30.27,ESE,121,2.0,2.0,56,0.00,,,0.00,Wunderground v.1.15,2013-01-01 22:05:00,
2013-01-01 15:15:00,28.3,14.6,30.27,SSE,160,2.0,3.0,56,0.00,,,0.00,Wunderground v.1.15,2013-01-01 22:15:00,
2013-01-01 15:20:00,28.5,14.8,30.27,SE,137,2.0,3.0,56,0.00,,,0.00,Wunderground v.1.15,2013-01-01 22:20:00,
2013-01-01 15:25:00,28.2,14.5,30.27,East,98,2.0,3.0,56,0.00,,,0.00,Wunderground v.1.15,2013-01-01 22:25:00,
2013-01-01 15:30:00,28.1,14.8,30.27,East,96,2.0,2.0,57,0.00,,,0.00,Wunderground v.1.15,2013-01-01 22:30:00,
2013-01-01 15:40:00,27.7,14.4,30.26,ESE,105,3.0,3.0,57,0.00,,,0.00,Wunderground v.1.15,2013-01-01 22:40:00,
2013-01-01 15:45:00,27.7,14.4,30.26,SE,129,2.0,3.0,57,0.00,,,0.00,Wunderground v.1.15,2013-01-01 22:45:00,
2013-01-01 15:50:00,27.5,14.2,30.26,East,96,2.0,2.0,57,0.00,,,0.00,Wunderground v.1.15,2013-01-01 22:50:00,
2013-01-01 15:55:00,27.3,14.1,30.26,ENE,78,1.0,2.0,57,0.00,,,0.00,Wunderground v.1.15,2013-01-01 22:55:00,
2013-01-01 16:00:00,27.0,13.8,30.26,ENE,64,1.0,1.0,57,0.00,,,0.00,Wunderground v.1.15,2013-01-01 23:00:00,
2013-01-01 16:05:00,26.6,13.4,30.26,ENE,72,1.0,1.0,57,0.00,,,0.00,Wunderground v.1.15,2013-01-01 23:05:00,
2013-01-01 16:15:00,26.1,13.3,30.26,ENE,74,1.0,1.0,58,0.00,,,0.00,Wunderground v.1.15,2013-01-01 23:15:00,
2013-01-01 16:20:00,25.8,13.0,30.26,ENE,73,0.0,0.0,58,0.00,,,0.00,Wunderground v.1.15,2013-01-01 23:20:00,
2013-01-01 16:25:00,25.5,13.1,30.26,ENE,74,0.0,0.0,59,0.00,,,0.00,Wunderground v.1.15,2013-01-01 23:25:00,
2013-01-01 16:30:00,25.3,13.0,30.26,ENE,72,0.0,0.0,59,0.00,,,0.00,Wunderground v.1.15,2013-01-01 23:30:00,
2013-01-01 16:35:00,25.0,12.7,30.26,ENE,72,0.0,0.0,59,0.00,,,0.00,Wunderground v.1.15,2013-01-01 23:35:00,
2013-01-01 16:40:00,24.4,12.9,30.26,West,259,0.0,2.0,61,0.00,,,0.00,Wunderground v.1.15,2013-01-01 23:40:00,
2013-01-01 16:45:00,23.9,12.8,30.26,West,278,1.0,2.0,62,0.00,,,0.00,Wunderground v.1.15,2013-01-01 23:45:00,
2013-01-01 16:50:00,23.6,12.8,30.26,West,278,0.0,0.0,63,0.00,,,0.00,Wunderground v.1.15,2013-01-01 23:50:00,
2013-01-01 17:00:00,23.0,12.6,30.25,WSW,253,1.0,1.0,64,0.00,,,0.00,Wunderground v.1.15,2013-01-02 00:00:00,
2013-01-01 17:05:00,22.7,12.3,30.25,West,269,0.0,2.0,64,0.00,,,0.00,Wunderground v.1.15,2013-01-02 00:05:00,
2013-01-01 17:15:00,21.9,11.9,30.25,West,259,1.0,1.0,65,0.00,,,0.00,Wunderground v.1.15,2013-01-02 00:15:00,
2013-01-01 17:20:00,21.3,11.7,30.25,West,259,0.0,0.0,66,0.00,,,0.00,Wunderground v.1.15,2013-01-02 00:20:00,
2013-01-01 17:25:00,20.8,11.6,30.25,West,259,0.0,0.0,67,0.00,,,0.00,Wunderground v.1.15,2013-01-02 00:25:00,
2013-01-01 17:35:00,19.8,10.9,30.25,West,259,0.0,0.0,68,0.00,,,0.00,Wunderground v.1.15,2013-01-02 00:35:00,
2013-01-01 17:40:00,19.2,11.0,30.25,West,259,0.0,0.0,70,0.00,,,0.00,Wunderground v.1.15,2013-01-02 00:40:00,
2013-01-01 17:45:00,18.6,10.8,30.25,West,259,0.0,0.0,71,0.00,,,0.00,Wunderground v.1.15,2013-01-02 00:45:00,
2013-01-01 17:50:00,18.1,10.6,30.25,West,259,0.0,0.0,72,0.00,,,0.00,Wunderground v.1.15,2013-01-02 00:50:00,
2013-01-01 17:55:00,17.8,10.3,30.25,West,259,0.0,0.0,72,0.00,,,0.00,Wunderground v.1.15,2013-01-02 00:55:00,
2013-01-01 18:00:00,17.7,10.2,30.25,West,259,0.0,0.0,72,0.00,,,0.00,Wunderground v.1.15,2013-01-02 01:00:00,
2013-01-01 18:05:00,17.6,10.4,30.25,NNE,23,0.0,0.0,73,0.00,,,0.00,Wunderground v.1.15,2013-01-02 01:05:00,
2013-01-01 18:15:00,17.2,10.3,30.25,NNE,23,0.0,0.0,74,0.00,,,0.00,Wunderground v.1.15,2013-01-02 01:15:00,
2013-01-01 18:20:00,17.0,9.8,30.26,NNE,23,0.0,0.0,73,0.00,,,0.00,Wunderground v.1.15,2013-01-02 01:20:00,
2013-01-01 18:25:00,16.8,9.6,30.27,NNE,23,0.0,0.0,73,0.00,,,0.00,Wunderground v.1.15,2013-01-02 01:25:00,
2013-01-01 18:30:00,16.3,9.5,30.27,NNE,23,0.0,0.0,74,0.00,,,0.00,Wunderground v.1.15,2013-01-02 01:30:00,
2013-01-01 18:35:00,15.8,9.0,30.27,NNE,23,0.0,0.0,74,0.00,,,0.00,Wunderground v.1.15,2013-01-02 01:35:00,
2013-01-01 18:40:00,15.5,8.7,30.28,NNE,23,0.0,0.0,74,0.00,,,0.00,Wunderground v.1.15,2013-01-02 01:40:00,
2013-01-01 18:50:00,15.1,8.6,30.28,NNE,23,0.0,0.0,75,0.00,,,0.00,Wunderground v.1.15,2013-01-02 01:50:00,
2013-01-01 18:55:00,15.2,9.0,30.28,NNE,23,0.0,0.0,76,0.00,,,0.00,Wunderground v.1.15,2013-01-02 01:55:00,
2013-01-01 19:00:00,15.1,8.9,30.28,NNE,25,0.0,0.0,76,0.00,,,0.00,Wunderground v.1.15,2013-01-02 02:00:00,
2013-01-01 19:05:00,14.9,8.7,30.28,West,270,1.0,1.0,76,0.00,,,0.00,Wunderground v.1.15,2013-01-02 02:05:00,
2013-01-01 19:15:00,14.8,8.6,30.29,West,266,0.0,2.0,76,0.00,,,0.00,Wunderground v.1.15,2013-01-02 02:15:00,
2013-01-01 19:20:00,16.2,9.4,30.29,SW,218,1.0,1.0,74,0.00,,,0.00,Wunderground v.1.15,2013-01-02 02:20:00,
2013-01-01 19:25:00,15.6,7.9,30.29,SW,225,1.0,1.0,71,0.00,,,0.00,Wunderground v.1.15,2013-01-02 02:25:00,
2013-01-01 19:30:00,15.1,8.0,30.29,NNW,335,0.0,0.0,73,0.00,,,0.00,Wunderground v.1.15,2013-01-02 02:30:00,
2013-01-01 19:35:00,14.8,8.0,30.29,NNW,335,0.0,0.0,74,0.00,,,0.00,Wunderground v.1.15,2013-01-02 02:35:00,
2013-01-01 19:40:00,15.0,7.9,30.29,WSW,242,0.0,0.0,73,0.00,,,0.00,Wunderground v.1.15,2013-01-02 02:40:00,
2013-01-01 19:45:00,14.8,7.4,30.29,ENE,74,1.0,1.0,72,0.00,,,0.00,Wunderground v.1.15,2013-01-02 02:45:00,
2013-01-01 19:55:00,14.7,7.3,30.30,ENE,74,0.0,1.0,72,0.00,,,0.00,Wunderground v.1.15,2013-01-02 02:55:00,
2013-01-01 20:00:00,14.5,7.1,30.30,ENE,70,0.0,0.0,72,0.00,,,0.00,Wunderground v.1.15,2013-01-02 03:00:00,
2013-01-01 20:05:00,14.0,6.6,30.30,NNE,30,0.0,0.0,72,0.00,,,0.00,Wunderground v.1.15,2013-01-02 03:05:00,
2013-01-01 20:15:00,13.7,6.6,30.30,WSW,255,0.0,1.0,73,0.00,,,0.00,Wunderground v.1.15,2013-01-02 03:15:00,
2013-01-01 20:20:00,14.3,6.6,30.30,West,275,1.0,2.0,71,0.00,,,0.00,Wunderground v.1.15,2013-01-02 03:20:00,
2013-01-01 20:30:00,15.0,6.7,30.30,NNE,12,1.0,1.0,69,0.00,,,0.00,Wunderground v.1.15,2013-01-02 03:30:00,
2013-01-01 20:35:00,14.5,6.5,30.30,WSW,242,0.0,1.0,70,0.00,,,0.00,Wunderground v.1.15,2013-01-02 03:35:00,
2013-01-01 20:40:00,14.0,5.7,30.31,West,269,1.0,1.0,69,0.00,,,0.00,Wunderground v.1.15,2013-01-02 03:40:00,
2013-01-01 20:45:00,14.1,5.8,30.31,WSW,240,1.0,1.0,69,0.00,,,0.00,Wunderground v.1.15,2013-01-02 03:45:00,
2013-01-01 20:50:00,13.6,5.0,30.31,SE,124,0.0,1.0,68,0.00,,,0.00,Wunderground v.1.15,2013-01-02 03:50:00,
2013-01-01 20:55:00,13.2,4.9,30.30,East,79,0.0,1.0,69,0.00,,,0.00,Wunderground v.1.15,2013-01-02 03:55:00,
2013-01-01 21:00:00,13.5,5.5,30.30,West,267,0.0,0.0,70,0.00,,,0.00,Wunderground v.1.15,2013-01-02 04:00:00,
2013-01-01 21:10:00,14.1,5.1,30.30,North,349,0.0,0.0,67,0.00,,,0.00,Wunderground v.1.15,2013-01-02 04:10:00,
2013-01-01 21:15:00,14.0,5.1,30.30,North,350,0.0,0.0,67,0.00,,,0.00,Wunderground v.1.15,2013-01-02 04:15:00,
2013-01-01 21:20:00,13.5,4.9,30.30,West,267,0.0,0.0,68,0.00,,,0.00,Wunderground v.1.15,2013-01-02 04:20:00,
2013-01-01 21:25:00,13.1,4.5,30.30,West,266,0.0,0.0,68,0.00,,,0.00,Wunderground v.1.15,2013-01-02 04:25:00,
2013-01-01 21:30:00,12.7,4.4,30.30,SW,236,0.0,1.0,69,0.00,,,0.00,Wunderground v.1.15,2013-01-02 04:30:00,
2013-01-01 21:35:00,12.3,4.7,30.30,West,274,0.0,1.0,71,0.00,,,0.00,Wunderground v.1.15,2013-01-02 04:35:00,
2013-01-01 21:45:00,13.4,4.8,30.31,ESE,106,0.0,1.0,68,0.00,,,0.00,Wunderground v.1.15,2013-01-02 04:45:00,
2013-01-01 21:50:00,13.3,5.0,30.31,West,271,1.0,1.0,69,0.00,,,0.00,Wunderground v.1.15,2013-01-02 04:50:00,
2013-01-01 21:55:00,14.0,5.1,30.32,NE,56,1.0,1.0,67,0.00,,,0.00,Wunderground v.1.15,2013-01-02 04:55:00,
2013-01-01 22:00:00,14.4,5.4,30.32,NW,315,1.0,1.0,67,0.00,,,0.00,Wunderground v.1.15,2013-01-02 05:00:00,
2013-01-01 22:05:00,15.0,5.3,30.32,ENE,70,1.0,1.0,65,0.00,,,0.00,Wunderground v.1.15,2013-01-02 05:05:00,
2013-01-01 22:10:00,15.1,5.8,30.33,ENE,70,0.0,0.0,66,0.00,,,0.00,Wunderground v.1.15,2013-01-02 05:10:00,
2013-01-01 22:15:00,15.4,5.7,30.33,NE,48,0.0,1.0,65,0.00,,,0.00,Wunderground v.1.15,2013-01-02 05:15:00,
2013-01-01 22:20:00,15.5,5.8,30.33,West,264,1.0,1.0,65,0.00,,,0.00,Wunderground v.1.15,2013-01-02 05:20:00,
2013-01-01 22:25:00,15.9,5.5,30.34,West,264,0.0,1.0,63,0.00,,,0.00,Wunderground v.1.15,2013-01-02 05:25:00,
2013-01-01 22:30:00,16.7,5.6,30.34,ENE,68,0.0,1.0,61,0.00,,,0.00,Wunderground v.1.15,2013-01-02 05:30:00,
2013-01-01 22:35:00,17.5,6.0,30.34,SE,143,0.0,1.0,60,0.00,,,0.00,Wunderground v.1.15,2013-01-02 05:35:00,
2013-01-01 22:45:00,18.2,6.6,30.34,NNE,16,1.0,1.0,60,0.00,,,0.00,Wunderground v.1.15,2013-01-02 05:45:00,
2013-01-01 22:50:00,18.5,7.3,30.34,NNE,15,0.0,0.0,61,0.00,,,0.00,Wunderground v.1.15,2013-01-02 05:50:00,
2013-01-01 23:00:00,17.9,7.1,30.34,WSW,251,0.0,0.0,62,0.00,,,0.00,Wunderground v.1.15,2013-01-02 06:00:00,
2013-01-01 23:05:00,18.0,7.5,30.34,WSW,251,0.0,0.0,63,0.00,,,0.00,Wunderground v.1.15,2013-01-02 06:05:00,
2013-01-01 23:15:00,18.0,7.9,30.34,NE,52,0.0,0.0,64,0.00,,,0.00,Wunderground v.1.15,2013-01-02 06:15:00,
2013-01-01 23:20:00,18.0,7.9,30.34,NE,49,0.0,1.0,64,0.00,,,0.00,Wunderground v.1.15,2013-01-02 06:20:00,
2013-01-01 23:30:00,17.9,7.1,30.34,West,275,1.0,1.0,62,0.00,,,0.00,Wunderground v.1.15,2013-01-02 06:30:00,
2013-01-01 23:35:00,18.1,6.9,30.34,West,276,0.0,1.0,61,0.00,,,0.00,Wunderground v.1.15,2013-01-02 06:35:00,
2013-01-01 23:40:00,18.4,6.8,30.34,South,183,0.0,0.0,60,0.00,,,0.00,Wunderground v.1.15,2013-01-02 06:40:00,
2013-01-01 23:45:00,18.3,7.1,30.33,ENE,68,1.0,1.0,61,0.00,,,0.00,Wunderground v.1.15,2013-01-02 06:45:00,
2013-01-01 23:50:00,18.2,7.3,30.33,ENE,68,1.0,1.0,62,0.00,,,0.00,Wunderground v.1.15,2013-01-02 06:50:00,
2013-01-01 23:55:00,18.4,6.8,30.33,WSW,245,0.0,1.0,60,0.00,,,0.00,Wunderground v.1.15,2013-01-02 06:55:00,